الصفحة الرئيسية
METAR-TAF:

METAR-TAF

مطار :

تالين, إستونيا

دائرة عرض: 59-23N, خط طول: 024-35E, ارتفاع: 44 متر

مراقبة الطقس الحالي

تاريخ ووقت الإصدار 34 دقيقة قبل الساعة 19:50UTC
ريح 8 عقدة من الشرق
درجة الحرارة 1°درجة مئوية
الرطوبة 80%
ضغط 1008 hPa
الرؤية 10 كم أو أكثر
غيوم متفرقة على ارتفاع 3000 قدم

METAR: EETN 171950Z 09008KT 9999 SCT030 01/M02 Q1008 NOSIG

زمن: 23:24 (20:24 UTC)

توقعات

تاريخ ووقت الإصدار 2ساعات و 54 دقيقة قبل الساعة 17:30UTC
التوقعات صالحة من17 الساعة 18 UTC إلى 18 الساعة 18 UTC
ريح 10 عقدة من الشمال الشرقي
الرؤية 10 كم أو أكثر
غيوم متفرقة على ارتفاع 2000 قدم
أصبح
من 17 الساعة 20 UTC إلى 17 الساعة 22 UTC
ريح 6 عقدة من الشرق
نظرية الاحتمالات 40% :
مؤقت
من 18 الساعة 00 UTC إلى 18 الساعة 05 UTC
غيوم مفككة على ارتفاع 500 قدم
أصبح
من 18 الساعة 07 UTC إلى 18 الساعة 09 UTC
ريح 10 عقدة من الشمال الشرقي

TAF: EETN 171730Z 1718/1818 04010KT 9999 SCT020 BECMG 1720/1722 10006KT PROB40 TEMPO 1800/1805 BKN005 BECMG 1807/1809 04010KT

أرصاد الطقس والتوقعات من أكثر من 4000 مطار (تقارير الطقس للمطار METAR والتنبؤ بالطقس بالمطارTAF).

المحطات المتاحة هي النقط الصفراء والحمراء على الخريطة.

حرك المؤشر فوق النقطة لمعرفة اسم المحطة.

ثم انقر لمعرفة أرصاد وتوقعات الطقس.

لتغيير الخارطة: اضغط على الأزرار الخضراء مع رمز الصليب الأسود للتكبير. على الزر الأخضر مع شرطة للتصغير، أو على الأسهم الخضراء للخرائط المجاورة.


METAR-TAF: